Time;durP1;ratioP1;P1;durP2;ratioP2;P2;SDS_P1;SDS_P2;PMS_P1;PMS_P2;Temp;Humidity;BMP_temperature;BMP_pressure;BME280_temperature;BME280_humidity;BME280_pressure;Samples;Min_cycle;Max_cycle;Signal;HPM_P1;HPM_P2
2022/11/26 00:01:38;;;;;;;42.85;32.17;;;10.80;1.00;;;;;;5022069;28;20042;-61
2022/11/26 00:04:05;;;;;;;39.72;30.23;;;10.70;1.00;;;;;;5013419;28;20022;-61
2022/11/26 00:06:37;;;;;;;39.20;30.42;;;10.80;1.00;;;;;;5014159;28;20109;-61
2022/11/26 00:09:15;;;;;;;36.20;28.60;;;10.70;1.00;;;;;;5016562;28;20407;-61
2022/11/26 00:11:41;;;;;;;35.97;28.63;;;10.80;1.00;;;;;;5035188;28;20020;-61
2022/11/26 00:14:16;;;;;;;35.65;28.48;;;10.70;1.00;;;;;;5034493;28;20026;-60
2022/11/26 00:16:43;;;;;;;36.85;28.67;;;10.80;1.00;;;;;;5032765;28;20021;-60
2022/11/26 00:19:08;;;;;;;41.45;30.77;;;10.70;1.00;;;;;;5026392;28;20460;-60
2022/11/26 00:21:37;;;;;;;41.28;30.33;;;10.70;1.00;;;;;;5034810;28;20037;-60
2022/11/26 00:24:03;;;;;;;38.10;31.20;;;10.60;1.00;;;;;;5033766;28;20057;-61
2022/11/26 00:26:29;;;;;;;41.22;32.58;;;10.70;1.00;;;;;;5034744;28;20021;-61
2022/11/26 00:29:01;;;;;;;37.28;30.48;;;10.70;1.00;;;;;;5028192;28;20048;-62
2022/11/26 00:31:27;;;;;;;36.33;31.10;;;10.60;1.00;;;;;;5034793;28;20159;-62
2022/11/26 00:33:53;;;;;;;37.90;30.50;;;10.60;1.00;;;;;;5033577;28;20018;-61
2022/11/26 00:36:27;;;;;;;39.40;30.38;;;10.60;1.00;;;;;;5030282;28;20112;-61
2022/11/26 00:39:01;;;;;;;38.92;30.00;;;10.50;1.00;;;;;;5034528;28;20033;-61
2022/11/26 00:41:31;;;;;;;34.95;29.30;;;10.40;1.00;;;;;;5034371;28;20064;-61
2022/11/26 00:43:57;;;;;;;37.38;29.70;;;10.50;1.00;;;;;;5034148;28;20030;-61
2022/11/26 00:46:23;;;;;;;38.00;29.70;;;10.50;1.00;;;;;;5029577;28;20060;-61
2022/11/26 00:48:49;;;;;;;38.10;29.83;;;10.50;1.00;;;;;;5033731;28;20026;-61
2022/11/26 00:51:24;;;;;;;40.45;32.15;;;10.50;1.00;;;;;;5020329;28;20029;-61
2022/11/26 00:53:53;;;;;;;40.08;33.42;;;10.50;1.00;;;;;;5034136;28;20025;-61
2022/11/26 00:56:20;;;;;;;40.97;32.63;;;10.50;1.00;;;;;;5034124;28;20029;-61
2022/11/26 00:58:47;;;;;;;40.92;31.92;;;10.50;1.00;;;;;;5033823;28;20052;-60
2022/11/26 01:01:17;;;;;;;39.65;30.85;;;10.50;1.00;;;;;;5027210;28;20041;-60
2022/11/26 01:03:42;;;;;;;42.47;31.30;;;10.50;1.00;;;;;;5020035;28;20395;-60
2022/11/26 01:06:14;;;;;;;41.53;33.05;;;10.50;1.00;;;;;;5023621;28;20057;-61
2022/11/26 01:08:40;;;;;;;42.28;32.78;;;10.40;1.00;;;;;;5021712;28;20082;-60
2022/11/26 01:11:06;;;;;;;40.10;31.88;;;10.40;1.00;;;;;;5023054;28;20467;-60
2022/11/26 01:13:32;;;;;;;38.28;31.48;;;10.30;1.00;;;;;;5033689;28;20022;-60
2022/11/26 01:15:59;;;;;;;41.40;32.90;;;10.40;1.00;;;;;;5033834;28;20083;-60
2022/11/26 01:18:25;;;;;;;40.75;31.42;;;10.40;1.00;;;;;;5020466;28;20029;-60
2022/11/26 01:20:51;;;;;;;43.15;32.60;;;10.40;1.00;;;;;;5022186;28;20045;-59
2022/11/26 01:23:18;;;;;;;42.00;32.28;;;10.30;1.00;;;;;;5033529;28;20021;-60
2022/11/26 01:25:46;;;;;;;39.22;31.27;;;10.30;1.00;;;;;;5026652;28;20022;-60
2022/11/26 01:28:14;;;;;;;39.65;30.70;;;10.20;1.00;;;;;;5026777;28;20025;-60
2022/11/26 01:30:40;;;;;;;40.55;30.95;;;10.30;1.00;;;;;;5026415;28;20030;-60
2022/11/26 01:33:06;;;;;;;40.13;31.65;;;10.30;1.00;;;;;;5033608;28;20391;-60
2022/11/26 01:35:32;;;;;;;39.78;31.63;;;10.30;1.00;;;;;;5021135;28;20124;-60
2022/11/26 01:37:58;;;;;;;42.90;32.72;;;10.20;1.00;;;;;;5033351;28;20044;-60
2022/11/26 01:40:53;;;;;;;42.67;31.45;;;10.20;1.00;;;;;;5033305;28;20085;-61
2022/11/26 01:43:21;;;;;;;41.65;31.52;;;10.10;1.00;;;;;;5033226;28;20021;-61
2022/11/26 01:45:47;;;;;;;41.08;32.33;;;10.10;1.00;;;;;;5024068;28;20021;-61
2022/11/26 01:48:25;;;;;;;37.25;30.15;;;10.10;1.00;;;;;;5033456;28;20427;-61
2022/11/26 01:50:58;;;;;;;42.83;32.08;;;10.00;1.00;;;;;;5019635;28;20033;-61
2022/11/26 01:53:46;;;;;;;40.17;31.25;;;10.00;1.00;;;;;;5033268;28;20099;-61
2022/11/26 01:56:32;;;;;;;41.00;32.08;;;10.00;1.00;;;;;;5033071;28;20052;-61
2022/11/26 01:59:30;;;;;;;41.05;31.75;;;10.00;1.00;;;;;;5009927;28;20030;-61
2022/11/26 02:01:57;;;;;;;39.25;31.70;;;10.00;1.00;;;;;;5021929;28;20100;-60
2022/11/26 02:04:27;;;;;;;43.05;32.58;;;9.90;1.00;;;;;;5027204;28;20032;-60
2022/11/26 02:06:55;;;;;;;39.65;31.33;;;10.00;1.00;;;;;;5022846;28;20108;-61
2022/11/26 02:09:21;;;;;;;43.00;32.35;;;9.90;1.00;;;;;;5019042;28;20037;-60
2022/11/26 02:11:47;;;;;;;42.10;32.67;;;9.90;1.00;;;;;;5015012;28;20208;-61
2022/11/26 02:14:29;;;;;;;40.17;32.33;;;9.90;1.00;;;;;;5012483;28;20124;-61
2022/11/26 02:17:20;;;;;;;42.28;32.47;;;9.90;1.00;;;;;;5009835;28;20030;-61
2022/11/26 02:19:58;;;;;;;38.40;30.33;;;9.90;1.00;;;;;;5012585;28;20106;-61
2022/11/26 02:22:48;;;;;;;41.95;32.95;;;9.90;1.00;;;;;;5012997;28;20472;-61
2022/11/26 02:25:20;;;;;;;43.47;34.10;;;9.90;1.00;;;;;;5008825;28;20033;-61
2022/11/26 02:27:55;;;;;;;43.67;31.20;;;9.90;1.00;;;;;;5031226;28;20018;-60
2022/11/26 02:30:20;;;;;;;43.30;32.40;;;9.80;1.00;;;;;;5017646;28;20171;-60
2022/11/26 02:33:10;;;;;;;39.45;32.03;;;9.90;1.00;;;;;;5006452;28;20034;-60
2022/11/26 02:35:48;;;;;;;37.35;30.75;;;9.90;1.00;;;;;;5016837;28;20026;-60
2022/11/26 02:38:25;;;;;;;41.75;31.83;;;9.80;1.00;;;;;;5032552;28;20370;-60
2022/11/26 02:40:51;;;;;;;37.92;31.15;;;9.90;1.00;;;;;;5032561;28;20379;-60
2022/11/26 02:43:19;;;;;;;42.40;32.35;;;9.80;1.00;;;;;;5017716;28;20030;-61
2022/11/26 02:45:53;;;;;;;38.67;31.42;;;9.80;1.00;;;;;;5023963;28;20048;-60
2022/11/26 02:48:26;;;;;;;32.33;24.17;;;9.80;1.00;;;;;;5016886;28;20029;-60
2022/11/26 02:51:04;;;;;;;38.92;30.88;;;9.70;1.00;;;;;;5009755;28;20467;-60
2022/11/26 02:53:32;;;;;;;40.90;31.90;;;9.80;1.00;;;;;;5012521;28;20049;-61
2022/11/26 02:56:05;;;;;;;39.28;31.08;;;9.80;1.00;;;;;;5031967;28;20033;-61
2022/11/26 02:58:32;;;;;;;42.65;31.50;;;9.80;1.00;;;;;;5032081;28;20025;-60
2022/11/26 03:01:00;;;;;;;38.05;31.20;;;9.80;1.00;;;;;;5016239;28;20057;-60
2022/11/26 03:03:31;;;;;;;41.97;31.83;;;9.70;1.00;;;;;;5008991;28;20018;-61
2022/11/26 03:06:02;;;;;;;42.08;31.77;;;9.80;1.00;;;;;;5009816;28;20026;-60
2022/11/26 03:08:29;;;;;;;39.75;30.55;;;9.80;1.00;;;;;;5011300;28;20100;-60
2022/11/26 03:10:55;;;;;;;39.35;31.52;;;9.80;1.00;;;;;;5010436;28;20046;-60
2022/11/26 03:13:21;;;;;;;40.60;32.10;;;9.80;1.00;;;;;;5010851;28;20156;-61
2022/11/26 03:15:46;;;;;;;43.67;31.63;;;9.80;1.00;;;;;;5010794;28;20056;-60
2022/11/26 03:18:12;;;;;;;44.25;33.22;;;9.80;1.00;;;;;;5011898;28;20040;-60
2022/11/26 03:20:37;;;;;;;45.90;34.95;;;9.60;1.00;;;;;;5011345;28;20046;-60
2022/11/26 03:23:03;;;;;;;44.38;33.70;;;9.50;1.00;;;;;;5026342;28;20521;-61
2022/11/26 03:25:29;;;;;;;43.58;33.53;;;9.60;1.00;;;;;;5031508;28;20048;-60
2022/11/26 03:27:54;;;;;;;44.95;34.25;;;9.40;1.00;;;;;;5031297;28;20518;-60
2022/11/26 03:30:20;;;;;;;44.57;35.97;;;9.40;1.00;;;;;;5023342;28;20491;-60
2022/11/26 03:32:46;;;;;;;45.20;36.72;;;9.30;1.00;;;;;;5015182;28;20080;-61
2022/11/26 03:35:11;;;;;;;47.72;34.45;;;9.40;1.00;;;;;;5019664;28;20105;-60
2022/11/26 03:37:38;;;;;;;48.67;35.70;;;9.50;1.00;;;;;;5028053;28;20121;-60
2022/11/26 03:40:04;;;;;;;46.42;36.30;;;9.40;1.00;;;;;;5031410;28;20088;-60
2022/11/26 03:42:30;;;;;;;43.65;35.05;;;9.40;1.00;;;;;;5033091;28;20493;-61
2022/11/26 03:44:55;;;;;;;44.65;33.63;;;9.40;1.00;;;;;;5029037;28;20117;-60
2022/11/26 03:47:21;;;;;;;49.10;37.15;;;9.40;1.00;;;;;;5028089;28;20053;-61
2022/11/26 03:49:47;;;;;;;45.42;34.85;;;9.50;1.00;;;;;;5021092;28;20094;-60
2022/11/26 03:52:12;;;;;;;49.60;38.60;;;9.40;1.00;;;;;;5034088;28;20025;-61
2022/11/26 03:54:38;;;;;;;49.50;37.50;;;9.30;1.00;;;;;;5035378;28;20416;-61
2022/11/26 03:57:03;;;;;;;47.35;38.15;;;9.30;1.00;;;;;;5033976;28;20391;-61
2022/11/26 03:59:29;;;;;;;52.88;37.97;;;9.20;1.00;;;;;;5012065;28;20088;-61
2022/11/26 04:01:55;;;;;;;52.03;38.58;;;9.20;1.00;;;;;;5035167;28;20087;-61
2022/11/26 04:04:42;;;;;;;46.42;37.70;;;9.20;1.00;;;;;;5030697;28;20030;-61
2022/11/26 04:07:08;;;;;;;48.55;38.05;;;9.20;1.00;;;;;;5009742;28;20033;-61
2022/11/26 04:09:33;;;;;;;44.92;37.65;;;9.00;1.00;;;;;;5035289;28;20026;-61
2022/11/26 04:11:59;;;;;;;49.53;39.03;;;9.10;1.00;;;;;;5035066;28;20483;-61
2022/11/26 04:14:24;;;;;;;49.03;38.60;;;9.00;1.00;;;;;;5033289;28;20371;-61
2022/11/26 04:16:50;;;;;;;53.35;39.38;;;9.00;1.00;;;;;;5029982;28;20030;-61
2022/11/26 04:19:16;;;;;;;47.47;38.60;;;9.00;1.00;;;;;;5019449;28;20017;-61
2022/11/26 04:21:41;;;;;;;43.53;37.10;;;9.00;1.00;;;;;;5015883;28;20041;-61
2022/11/26 04:24:07;;;;;;;47.60;38.75;;;9.10;1.00;;;;;;5019963;28;20050;-61
2022/11/26 04:26:33;;;;;;;46.03;35.87;;;9.00;1.00;;;;;;5034721;28;20032;-61
2022/11/26 04:28:58;;;;;;;48.47;37.97;;;9.00;1.00;;;;;;5034484;28;20029;-61
2022/11/26 04:31:24;;;;;;;44.80;37.07;;;8.90;1.00;;;;;;5027454;28;20061;-61
2022/11/26 04:33:50;;;;;;;49.30;37.93;;;8.90;1.00;;;;;;5032850;28;20026;-61
2022/11/26 04:36:15;;;;;;;45.47;35.20;;;8.90;1.00;;;;;;5023182;28;20059;-61
2022/11/26 04:38:41;;;;;;;45.70;36.67;;;8.90;1.00;;;;;;5034912;28;20468;-61
2022/11/26 04:41:07;;;;;;;46.47;37.90;;;8.90;1.00;;;;;;5034894;28;20060;-61
2022/11/26 04:43:33;;;;;;;45.33;36.03;;;8.90;1.00;;;;;;5033146;28;20120;-61
2022/11/26 04:45:58;;;;;;;48.13;34.00;;;8.90;1.00;;;;;;5022679;28;20053;-61
2022/11/26 04:48:24;;;;;;;49.03;37.27;;;8.90;1.00;;;;;;5034563;28;20023;-61
2022/11/26 04:50:49;;;;;;;46.07;36.70;;;8.80;1.00;;;;;;5031602;28;20029;-61
2022/11/26 04:53:20;;;;;;;47.87;37.30;;;8.80;1.00;;;;;;5034187;28;20057;-61
2022/11/26 04:55:47;;;;;;;46.47;37.00;;;8.80;1.00;;;;;;5034317;28;20445;-61
2022/11/26 04:58:12;;;;;;;49.33;36.83;;;8.70;1.00;;;;;;5034006;28;20022;-61
2022/11/26 05:00:38;;;;;;;52.43;38.87;;;8.80;1.00;;;;;;5034084;28;20099;-61
2022/11/26 05:03:04;;;;;;;53.60;38.30;;;8.80;1.00;;;;;;5022354;28;20022;-61
2022/11/26 05:05:29;;;;;;;51.67;37.47;;;8.70;1.00;;;;;;5030223;28;20499;-61
2022/11/26 05:07:55;;;;;;;48.43;37.07;;;8.70;1.00;;;;;;5020204;28;20037;-61
2022/11/26 05:10:21;;;;;;;42.17;33.70;;;8.80;1.00;;;;;;5029296;28;20343;-61
2022/11/26 05:12:46;;;;;;;45.40;35.73;;;8.70;1.00;;;;;;5022756;28;20036;-61
2022/11/26 05:15:12;;;;;;;45.23;35.10;;;8.70;1.00;;;;;;5033934;28;20052;-60
2022/11/26 05:17:37;;;;;;;44.97;34.53;;;8.50;1.00;;;;;;5021250;28;20037;-60
2022/11/26 05:20:04;;;;;;;44.47;34.37;;;8.60;1.00;;;;;;5024086;28;20029;-61
2022/11/26 05:22:29;;;;;;;47.60;36.07;;;8.60;1.00;;;;;;5027149;28;20109;-61
2022/11/26 05:24:55;;;;;;;46.87;34.37;;;8.60;1.00;;;;;;5025923;28;20171;-60
2022/11/26 05:27:21;;;;;;;46.23;35.37;;;8.60;1.00;;;;;;5033420;28;20021;-60
2022/11/26 05:29:46;;;;;;;44.27;33.90;;;8.70;1.00;;;;;;5028681;28;20041;-61
2022/11/26 05:32:12;;;;;;;47.67;35.80;;;8.60;1.00;;;;;;5030098;28;20108;-61
2022/11/26 05:34:38;;;;;;;44.33;34.23;;;8.60;1.00;;;;;;5026097;28;20498;-60
2022/11/26 05:37:03;;;;;;;46.43;35.27;;;8.60;1.00;;;;;;5020330;28;20025;-61
2022/11/26 05:39:29;;;;;;;48.23;34.80;;;8.60;1.00;;;;;;5033755;28;20044;-61
2022/11/26 05:41:55;;;;;;;48.40;34.17;;;8.60;1.00;;;;;;5033238;28;20037;-60
2022/11/26 05:44:20;;;;;;;47.50;32.70;;;8.50;1.00;;;;;;5019107;28;20018;-60
2022/11/26 05:46:46;;;;;;;48.57;34.60;;;8.40;1.00;;;;;;5018104;28;20499;-61
2022/11/26 05:49:11;;;;;;;43.37;34.23;;;8.40;1.00;;;;;;5029398;28;20049;-61
2022/11/26 05:51:37;;;;;;;42.87;33.07;;;8.40;1.00;;;;;;5031600;28;20032;-61
2022/11/26 05:54:03;;;;;;;42.70;32.47;;;8.50;1.00;;;;;;5033337;28;20040;-61
2022/11/26 05:56:28;;;;;;;42.97;33.43;;;8.40;1.00;;;;;;5031668;28;20021;-61
2022/11/26 05:58:54;;;;;;;43.73;32.93;;;8.40;1.00;;;;;;5033330;28;20049;-61
2022/11/26 06:01:19;;;;;;;45.73;33.27;;;8.40;1.00;;;;;;5028785;28;20490;-60
2022/11/26 06:03:45;;;;;;;43.57;32.73;;;8.40;1.00;;;;;;5032843;28;20025;-61
2022/11/26 06:06:11;;;;;;;42.53;32.00;;;8.30;1.00;;;;;;5024911;28;20059;-61
2022/11/26 06:08:48;;;;;;;41.87;32.57;;;8.50;1.00;;;;;;5031397;28;20026;-61
2022/11/26 06:11:14;;;;;;;42.13;31.30;;;8.50;1.00;;;;;;5031633;28;20418;-61
2022/11/26 06:13:40;;;;;;;46.47;32.23;;;8.40;1.00;;;;;;5032661;28;20017;-61
2022/11/26 06:16:06;;;;;;;37.23;30.03;;;8.40;1.00;;;;;;5032615;28;20139;-60
2022/11/26 06:18:32;;;;;;;39.17;29.97;;;8.50;1.00;;;;;;5032489;28;20017;-61
2022/11/26 06:21:01;;;;;;;40.33;31.50;;;8.40;1.00;;;;;;5022513;28;20085;-61
2022/11/26 06:23:26;;;;;;;38.63;30.27;;;8.40;1.00;;;;;;5018546;28;20045;-61
2022/11/26 06:25:52;;;;;;;34.67;28.67;;;8.40;1.00;;;;;;5032578;28;20499;-61
2022/11/26 06:28:17;;;;;;;40.43;30.33;;;8.30;1.00;;;;;;5032575;28;20036;-61
2022/11/26 06:30:52;;;;;;;37.43;30.73;;;8.30;1.00;;;;;;5023246;28;20084;-61
2022/11/26 06:33:18;;;;;;;34.40;28.70;;;8.30;1.00;;;;;;5019835;28;20029;-61
2022/11/26 06:35:43;;;;;;;36.90;29.33;;;8.30;1.00;;;;;;5014643;28;20030;-61
2022/11/26 06:38:10;;;;;;;36.50;28.53;;;8.20;1.00;;;;;;5032520;28;20060;-61
2022/11/26 06:40:35;;;;;;;36.50;30.10;;;8.10;1.00;;;;;;5032309;28;20068;-61
2022/11/26 06:43:01;;;;;;;34.60;28.83;;;8.00;1.00;;;;;;5032327;28;20474;-61
2022/11/26 06:45:26;;;;;;;42.47;30.70;;;8.10;1.00;;;;;;5032249;28;20059;-61
2022/11/26 06:47:52;;;;;;;33.07;27.67;;;8.10;1.00;;;;;;5023074;28;20137;-61
2022/11/26 06:50:20;;;;;;;39.07;29.57;;;8.10;1.00;;;;;;5029258;28;20336;-61
2022/11/26 06:52:49;;;;;;;36.27;29.23;;;8.00;1.00;;;;;;5018017;28;20491;-61
2022/11/26 06:55:14;;;;;;;35.40;29.43;;;7.90;1.00;;;;;;5032118;28;20032;-61
2022/11/26 06:57:40;;;;;;;34.50;29.17;;;7.90;1.00;;;;;;5031753;28;20067;-61
2022/11/26 07:00:06;;;;;;;38.60;30.20;;;7.90;1.00;;;;;;5031951;28;20150;-61
2022/11/26 07:02:32;;;;;;;33.17;27.77;;;7.80;1.00;;;;;;5020801;28;20443;-61
2022/11/26 07:04:58;;;;;;;37.53;29.87;;;7.90;1.00;;;;;;5028365;28;20116;-62
2022/11/26 07:07:23;;;;;;;40.93;30.00;;;8.00;1.00;;;;;;5030528;28;20119;-61
2022/11/26 07:09:49;;;;;;;43.20;30.23;;;7.90;1.00;;;;;;5031869;28;20368;-61
2022/11/26 07:12:14;;;;;;;39.47;30.90;;;8.10;1.00;;;;;;5032093;28;20064;-61
2022/11/26 07:14:42;;;;;;;38.43;29.60;;;8.10;1.00;;;;;;5024745;28;20099;-61
2022/11/26 07:17:07;;;;;;;39.10;29.73;;;8.10;1.00;;;;;;5031588;28;20025;-61
2022/11/26 07:19:33;;;;;;;36.53;29.93;;;8.10;1.00;;;;;;5023931;28;20152;-61
2022/11/26 07:21:58;;;;;;;37.73;28.70;;;8.00;1.00;;;;;;5029698;28;20033;-61
2022/11/26 07:24:24;;;;;;;38.87;30.53;;;8.00;1.00;;;;;;5019976;28;20028;-60
2022/11/26 07:26:49;;;;;;;34.27;28.53;;;8.00;1.00;;;;;;5026964;28;20037;-60
2022/11/26 07:29:15;;;;;;;38.20;31.40;;;8.10;1.00;;;;;;5031832;28;20022;-60
2022/11/26 07:31:41;;;;;;;38.67;30.60;;;7.90;1.00;;;;;;5031796;28;20105;-60
2022/11/26 07:34:06;;;;;;;40.43;31.73;;;7.90;1.00;;;;;;5028481;28;20076;-60
2022/11/26 07:36:32;;;;;;;48.70;34.83;;;7.80;1.00;;;;;;5021692;28;20227;-61
2022/11/26 07:38:59;;;;;;;41.30;32.03;;;7.60;1.00;;;;;;5031526;28;20451;-59
2022/11/26 07:41:26;;;;;;;42.40;31.97;;;7.60;1.00;;;;;;5029951;28;20029;-60
2022/11/26 07:43:52;;;;;;;46.50;33.47;;;7.60;1.00;;;;;;5031300;28;20052;-61
2022/11/26 07:46:21;;;;;;;50.30;36.60;;;7.70;1.00;;;;;;5031190;28;20041;-60
2022/11/26 07:48:47;;;;;;;51.73;36.53;;;7.80;1.00;;;;;;5031192;28;20103;-60
2022/11/26 07:51:27;;;;;;;53.80;38.47;;;7.80;1.00;;;;;;5014217;28;20639;-60
2022/11/26 07:53:54;;;;;;;51.53;39.53;;;7.60;1.00;;;;;;5021324;28;20049;-60
2022/11/26 07:56:20;;;;;;;48.93;38.63;;;7.70;1.00;;;;;;5009045;28;20025;-60
2022/11/26 07:58:46;;;;;;;56.90;38.50;;;7.70;1.00;;;;;;5009628;28;20060;-60
2022/11/26 08:01:18;;;;;;;56.73;38.90;;;7.80;1.00;;;;;;5009553;28;20046;-59
2022/11/26 08:03:45;;;;;;;53.47;40.33;;;7.80;1.00;;;;;;5007307;28;20041;-60
2022/11/26 08:06:14;;;;;;;56.73;40.07;;;7.80;1.00;;;;;;5009505;28;20084;-60
2022/11/26 08:08:39;;;;;;;56.03;39.67;;;7.90;1.00;;;;;;5014505;28;20041;-60
2022/11/26 08:11:15;;;;;;;56.13;39.87;;;8.00;1.00;;;;;;5029040;28;20033;-60
2022/11/26 08:13:42;;;;;;;54.17;38.27;;;8.00;1.00;;;;;;5011507;28;20018;-60
2022/11/26 08:16:08;;;;;;;55.40;39.93;;;8.10;1.00;;;;;;5012490;28;20065;-60
2022/11/26 08:18:34;;;;;;;55.10;41.77;;;8.20;1.00;;;;;;5023238;28;20462;-60
2022/11/26 08:20:59;;;;;;;58.20;42.00;;;8.20;1.00;;;;;;5010932;28;20157;-60
2022/11/26 08:23:27;;;;;;;57.73;42.23;;;8.20;1.00;;;;;;5016324;28;20476;-60
2022/11/26 08:25:53;;;;;;;58.47;40.57;;;8.30;1.00;;;;;;5028289;28;20481;-60
2022/11/26 08:28:19;;;;;;;61.43;43.13;;;8.40;1.00;;;;;;5021416;28;20076;-60
2022/11/26 08:30:44;;;;;;;63.27;44.13;;;8.30;1.00;;;;;;5020299;28;20464;-60
2022/11/26 08:33:10;;;;;;;63.80;44.90;;;8.30;1.00;;;;;;5034719;28;20047;-60
2022/11/26 08:35:36;;;;;;;59.50;46.53;;;8.40;1.00;;;;;;5031672;28;20486;-60
2022/11/26 08:38:02;;;;;;;61.20;47.23;;;8.50;1.00;;;;;;5034435;28;20099;-60
2022/11/26 08:40:28;;;;;;;64.80;47.97;;;8.50;1.00;;;;;;5034530;28;20026;-60
2022/11/26 08:42:54;;;;;;;67.57;49.20;;;8.60;1.00;;;;;;5034594;28;20055;-60
2022/11/26 08:45:20;;;;;;;65.67;47.87;;;8.60;1.00;;;;;;5027552;28;20067;-61
2022/11/26 08:47:45;;;;;;;60.57;47.23;;;8.70;1.00;;;;;;5024949;28;20042;-60
2022/11/26 08:50:11;;;;;;;62.27;45.27;;;8.80;1.00;;;;;;5019646;28;20071;-62
2022/11/26 08:52:37;;;;;;;67.77;48.80;;;8.80;1.00;;;;;;5034516;28;20022;-62
2022/11/26 08:58:24;;;;;;;69.77;50.07;;;8.90;1.00;;;;;;5015157;28;20055;-59
2022/11/26 09:00:50;;;;;;;67.30;47.33;;;9.00;1.00;;;;;;5027367;28;20475;-63
2022/11/26 09:03:15;;;;;;;67.87;48.37;;;9.00;1.00;;;;;;5033097;28;20022;-62
2022/11/26 09:05:41;;;;;;;74.20;51.43;;;8.90;1.00;;;;;;5021348;28;20041;-62
2022/11/26 09:21:35;;;;;;;75.50;52.33;;;9.20;1.00;;;;;;5016533;28;20060;-62
2022/11/26 09:24:01;;;;;;;74.32;50.38;;;9.10;1.00;;;;;;5033960;28;20022;-62
2022/11/26 09:26:28;;;;;;;70.22;51.88;;;9.20;1.00;;;;;;5033757;28;20108;-61
2022/11/26 09:28:54;;;;;;;75.18;55.33;;;9.20;1.00;;;;;;5033809;28;20090;-61
2022/11/26 09:31:20;;;;;;;73.75;53.38;;;9.20;1.00;;;;;;5021802;28;20120;-61
2022/11/26 09:33:46;;;;;;;72.68;51.63;;;9.30;1.00;;;;;;5033743;28;20045;-61
2022/11/26 09:36:14;;;;;;;67.82;51.40;;;9.40;1.00;;;;;;5027851;28;20091;-61
2022/11/26 09:38:40;;;;;;;73.53;54.08;;;9.40;1.00;;;;;;5020762;28;20077;-61
2022/11/26 09:41:11;;;;;;;73.85;53.13;;;9.50;1.00;;;;;;5032940;28;20440;-61
2022/11/26 09:43:56;;;;;;;68.68;50.92;;;9.50;1.00;;;;;;5006478;28;20030;-61
2022/11/26 09:46:44;;;;;;;72.40;53.83;;;9.60;1.00;;;;;;5029676;28;20049;-61
2022/11/26 09:49:13;;;;;;;74.78;55.40;;;9.60;1.00;;;;;;5030044;28;20060;-61
2022/11/26 09:51:42;;;;;;;70.80;53.70;;;9.60;1.00;;;;;;5029829;28;20028;-61
2022/11/26 09:54:15;;;;;;;74.63;54.70;;;9.70;1.00;;;;;;5033307;28;20025;-61
2022/11/26 09:56:41;;;;;;;72.10;53.50;;;9.70;1.00;;;;;;5032624;28;20112;-70
2022/11/26 09:59:16;;;;;;;76.38;56.92;;;9.70;1.00;;;;;;5012052;28;20121;-61
2022/11/26 10:01:41;;;;;;;79.05;57.28;;;9.70;1.00;;;;;;5030278;28;20088;-60
2022/11/26 10:04:15;;;;;;;71.00;53.33;;;9.90;1.00;;;;;;5021894;28;20033;-60
2022/11/26 10:07:09;;;;;;;75.45;55.88;;;9.90;1.00;;;;;;5032043;28;20029;-61
2022/11/26 10:09:44;;;;;;;77.47;55.73;;;9.90;1.00;;;;;;5023569;28;20038;-60
2022/11/26 10:12:18;;;;;;;75.10;56.42;;;9.90;1.00;;;;;;5026351;28;20034;-60
2022/11/26 10:15:16;;;;;;;75.68;57.42;;;10.00;1.00;;;;;;5006307;28;20494;-60
2022/11/26 10:18:03;;;;;;;75.05;55.97;;;10.00;1.00;;;;;;5024675;28;20427;-60
2022/11/26 10:20:47;;;;;;;75.05;54.70;;;9.90;1.00;;;;;;5024591;28;20056;-60
2022/11/26 10:23:17;;;;;;;75.78;57.88;;;10.00;1.00;;;;;;5033065;28;20029;-60
2022/11/26 10:25:53;;;;;;;72.80;54.13;;;10.00;1.00;;;;;;5032900;28;20053;-60
2022/11/26 10:28:32;;;;;;;80.63;60.83;;;10.00;1.00;;;;;;5032674;28;20064;-60
2022/11/26 10:31:25;;;;;;;78.18;56.47;;;10.10;1.00;;;;;;5024732;28;20447;-61
2022/11/26 10:33:54;;;;;;;78.68;58.67;;;10.20;1.00;;;;;;5031658;28;20029;-61
2022/11/26 10:36:24;;;;;;;81.68;59.33;;;10.30;1.00;;;;;;5001753;28;20101;-61
2022/11/26 10:38:50;;;;;;;80.50;60.13;;;10.20;1.00;;;;;;5032496;28;20025;-61
2022/11/26 10:41:17;;;;;;;84.75;62.33;;;10.30;1.00;;;;;;5032432;28;20061;-60
2022/11/26 10:43:42;;;;;;;80.00;58.28;;;10.40;1.00;;;;;;5019452;28;20038;-60
2022/11/26 10:46:28;;;;;;;84.57;59.58;;;10.50;1.00;;;;;;5021204;28;20166;-65
2022/11/26 10:49:29;;;;;;;77.90;56.38;;;10.50;1.00;;;;;;5031413;28;20035;-69
2022/11/26 10:52:00;;;;;;;75.63;57.53;;;10.50;1.00;;;;;;5030689;28;20387;-64
2022/11/26 10:54:31;;;;;;;76.55;57.65;;;10.50;1.00;;;;;;5032535;28;20029;-65
2022/11/26 10:57:07;;;;;;;79.35;58.10;;;10.60;1.00;;;;;;5027775;28;20030;-64
2022/11/26 10:59:45;;;;;;;76.30;57.42;;;10.60;1.00;;;;;;5011504;28;20038;-65
2022/11/26 11:02:39;;;;;;;76.38;57.03;;;10.60;1.00;;;;;;5022891;28;20030;-66
2022/11/26 11:05:07;;;;;;;77.53;55.85;;;10.60;1.00;;;;;;5021284;28;20033;-64
2022/11/26 11:07:36;;;;;;;78.60;56.67;;;10.70;1.00;;;;;;5009755;28;20371;-64
2022/11/26 11:10:08;;;;;;;76.00;57.00;;;10.80;1.00;;;;;;5011508;28;20026;-64
2022/11/26 11:12:38;;;;;;;70.00;55.13;;;10.80;1.00;;;;;;5009285;28;20606;-63
2022/11/26 11:15:24;;;;;;;75.53;55.00;;;10.80;1.00;;;;;;5013189;28;20021;-62
2022/11/26 11:18:00;;;;;;;75.35;56.28;;;10.90;1.00;;;;;;5015129;28;20053;-64
2022/11/26 11:20:37;;;;;;;75.82;58.08;;;10.90;1.00;;;;;;5022469;28;20049;-63
2022/11/26 11:23:18;;;;;;;75.55;57.53;;;10.90;1.00;;;;;;5030922;28;20053;-63
2022/11/26 11:25:56;;;;;;;76.53;57.00;;;10.90;1.00;;;;;;5030224;28;20025;-60
2022/11/26 11:28:25;;;;;;;72.45;57.50;;;10.90;1.00;;;;;;5025305;28;20018;-60
2022/11/26 11:31:11;;;;;;;71.28;55.72;;;11.00;1.00;;;;;;5011522;28;20038;-61
2022/11/26 11:33:37;;;;;;;72.50;54.83;;;11.00;1.00;;;;;;5008148;28;20029;-65
2022/11/26 11:36:12;;;;;;;67.55;51.97;;;11.00;1.00;;;;;;5025343;28;20029;-61
2022/11/26 11:38:51;;;;;;;69.47;54.80;;;11.00;1.00;;;;;;5006799;28;20498;-62
2022/11/26 11:41:32;;;;;;;72.40;54.10;;;11.10;1.00;;;;;;5032145;28;20034;-70
2022/11/26 11:44:16;;;;;;;71.30;55.10;;;11.10;1.00;;;;;;5031657;28;20032;-67
2022/11/26 11:47:09;;;;;;;71.03;54.60;;;11.20;1.00;;;;;;5027552;28;20065;-63
2022/11/26 11:49:59;;;;;;;68.30;55.40;;;11.20;1.00;;;;;;5018505;28;20434;-69
2022/11/26 11:52:36;;;;;;;73.25;57.17;;;11.30;1.00;;;;;;5009639;28;20079;-64
2022/11/26 11:55:04;;;;;;;73.57;56.97;;;11.30;1.00;;;;;;5031775;28;20032;-64
2022/11/26 11:57:45;;;;;;;71.00;55.35;;;11.30;1.00;;;;;;5031596;28;20391;-64
2022/11/26 12:00:18;;;;;;;70.95;54.30;;;11.30;1.00;;;;;;5031535;28;20124;-64
2022/11/26 12:03:10;;;;;;;68.95;53.38;;;11.40;1.00;;;;;;5019479;28;20044;-64
2022/11/26 12:06:05;;;;;;;71.03;55.38;;;11.40;1.00;;;;;;5016168;28;20025;-64
2022/11/26 12:08:50;;;;;;;74.75;55.47;;;11.40;1.00;;;;;;5034827;28;20124;-64
2022/11/26 12:11:31;;;;;;;;;;;11.40;1.00;;;;;;5022476;28;20383;-64
2022/11/26 12:14:02;;;;;;;74.75;57.13;;;11.50;1.00;;;;;;5021750;28;20328;-64
2022/11/26 12:16:47;;;;;;;76.20;58.05;;;11.50;1.00;;;;;;5021391;28;20033;-64
2022/11/26 12:19:35;;;;;;;70.55;55.10;;;11.50;1.00;;;;;;5019351;28;20037;-64
2022/11/26 12:22:13;;;;;;;70.43;56.53;;;11.60;1.00;;;;;;5013795;28;20034;-64
2022/11/26 12:25:06;;;;;;;73.60;57.38;;;11.60;1.00;;;;;;5020362;28;20364;-64
2022/11/26 12:27:43;;;;;;;75.68;58.33;;;11.60;1.00;;;;;;5034978;28;20078;-64
2022/11/26 12:30:16;;;;;;;71.78;56.38;;;11.60;1.00;;;;;;5014633;28;20021;-64
2022/11/26 12:32:47;;;;;;;70.10;55.33;;;11.70;1.00;;;;;;5016488;28;20022;-64
2022/11/26 12:35:38;;;;;;;73.72;57.20;;;11.70;1.00;;;;;;5007380;28;20419;-64
2022/11/26 12:38:23;;;;;;;71.53;54.40;;;11.70;1.00;;;;;;5009229;28;20104;-65
2022/11/26 12:40:53;;;;;;;68.95;54.00;;;11.80;1.00;;;;;;5016887;28;20042;-64
2022/11/26 12:43:28;;;;;;;68.40;54.78;;;11.70;1.00;;;;;;5023348;28;20014;-64
2022/11/26 12:46:07;;;;;;;69.20;53.80;;;11.80;1.00;;;;;;5034959;28;20080;-64
2022/11/26 12:48:58;;;;;;;65.55;52.72;;;11.80;1.00;;;;;;5035101;28;20063;-64
2022/11/26 12:51:48;;;;;;;68.75;54.25;;;11.90;1.00;;;;;;5034781;28;20021;-65
2022/11/26 12:54:35;;;;;;;77.10;51.65;;;11.90;1.00;;;;;;5022184;28;20033;-64
2022/11/26 12:57:22;;;;;;;74.57;54.22;;;11.90;1.00;;;;;;5034724;28;20470;-64
2022/11/26 13:00:05;;;;;;;66.63;52.58;;;12.00;1.00;;;;;;5031194;28;20100;-65
2022/11/26 13:02:34;;;;;;;65.82;50.63;;;11.90;1.00;;;;;;5026528;28;20030;-64
2022/11/26 13:05:00;;;;;;;61.58;50.65;;;12.00;1.00;;;;;;5034350;28;20021;-65
2022/11/26 13:07:40;;;;;;;68.60;53.47;;;12.00;1.00;;;;;;5025650;28;20035;-65
2022/11/26 13:10:28;;;;;;;65.10;53.35;;;12.00;1.00;;;;;;5034283;28;20382;-65
2022/11/26 13:13:11;;;;;;;70.32;52.58;;;12.10;1.00;;;;;;5034438;28;20518;-65
2022/11/26 13:16:01;;;;;;;73.32;54.00;;;12.10;1.00;;;;;;5008497;28;20029;-65
2022/11/26 13:18:34;;;;;;;70.22;48.90;;;12.10;1.00;;;;;;5028390;28;20018;-65